Map

Track Data

SID SEASON NUMBER BASIN SUBBASIN NAME ISO_TIME NATURE LAT LON WMO_WIND WMO_PRES WMO_AGENCY TRACK_TYPE DIST2LAND LANDFALL IFLAG USA_AGENCY USA_ATCF_ID USA_LAT USA_LON USA_RECORD USA_STATUS USA_WIND USA_PRES USA_SSHS USA_R34_NE USA_R34_SE USA_R34_SW USA_R34_NW USA_R50_NE USA_R50_SE USA_R50_SW USA_R50_NW USA_R64_NE USA_R64_SE USA_R64_SW USA_R64_NW USA_POCI USA_ROCI USA_RMW USA_EYE TOKYO_LAT TOKYO_LON TOKYO_GRADE TOKYO_WIND TOKYO_PRES TOKYO_R50_DIR TOKYO_R50_LONG TOKYO_R50_SHORT TOKYO_R30_DIR TOKYO_R30_LONG TOKYO_R30_SHORT TOKYO_LAND CMA_LAT CMA_LON CMA_CAT CMA_WIND CMA_PRES HKO_LAT HKO_LON HKO_CAT HKO_WIND HKO_PRES NEWDELHI_LAT NEWDELHI_LON NEWDELHI_GRADE NEWDELHI_WIND NEWDELHI_PRES NEWDELHI_CI NEWDELHI_DP NEWDELHI_POCI REUNION_LAT REUNION_LON REUNION_TYPE REUNION_WIND REUNION_PRES REUNION_TNUM REUNION_CI REUNION_RMW REUNION_R34_NE REUNION_R34_SE REUNION_R34_SW REUNION_R34_NW REUNION_R50_NE REUNION_R50_SE REUNION_R50_SW REUNION_R50_NW REUNION_R64_NE REUNION_R64_SE REUNION_R64_SW REUNION_R64_NW BOM_LAT BOM_LON BOM_TYPE BOM_WIND BOM_PRES BOM_TNUM BOM_CI BOM_RMW BOM_R34_NE BOM_R34_SE BOM_R34_SW BOM_R34_NW BOM_R50_NE BOM_R50_SE BOM_R50_SW BOM_R50_NW BOM_R64_NE BOM_R64_SE BOM_R64_SW BOM_R64_NW BOM_ROCI BOM_POCI BOM_EYE BOM_POS_METHOD BOM_PRES_METHOD NADI_LAT NADI_LON NADI_CAT NADI_WIND NADI_PRES WELLINGTON_LAT WELLINGTON_LON WELLINGTON_WIND WELLINGTON_PRES DS824_LAT DS824_LON DS824_STAGE DS824_WIND DS824_PRES TD9636_LAT TD9636_LON TD9636_STAGE TD9636_WIND TD9636_PRES TD9635_LAT TD9635_LON TD9635_WIND TD9635_PRES TD9635_ROCI NEUMANN_LAT NEUMANN_LON NEUMANN_CLASS NEUMANN_WIND NEUMANN_PRES MLC_LAT MLC_LON MLC_CLASS MLC_WIND MLC_PRES USA_GUST BOM_GUST BOM_GUST_PER REUNION_GUST REUNION_GUST_PER USA_SEAHGT USA_SEARAD_NE USA_SEARAD_SE USA_SEARAD_SW USA_SEARAD_NW STORM_SPEED STORM_DIR
1929020N07139 1929 6 WP MM NOT_NAMED 1929-01-19 22:00:00 NR 6.70000 138.900 main 904 896 __________O___ -1 6.70000 138.900 2 7 271
1929020N07139 1929 6 WP MM NOT_NAMED 1929-01-20 00:00:00 NR 6.70388 138.677 main 896 881 __________P___ -1 6.70388 138.677 2 7 271
1929020N07139 1929 6 WP MM NOT_NAMED 1929-01-20 03:00:00 NR 6.71440 138.345 main 881 871 __________P___ -1 6.71440 138.345 2 7 273
1929020N07139 1929 6 WP MM NOT_NAMED 1929-01-20 06:00:00 NR 6.73726 138.019 main 871 867 __________P___ -1 6.73726 138.019 2 6 276
1929020N07139 1929 6 WP MM NOT_NAMED 1929-01-20 09:00:00 NR 6.78002 137.702 main 872 869 __________P___ -1 6.78002 137.702 2 6 279
1929020N07139 1929 6 WP MM NOT_NAMED 1929-01-20 10:00:00 NR 6.80000 137.600 main 869 863 __________O___ -1 6.80000 137.600 2 6 283
1929020N07139 1929 6 WP MM NOT_NAMED 1929-01-20 12:00:00 NR 6.84940 137.399 main 863 867 __________P___ -1 6.84940 137.399 2 6 286
1929020N07139 1929 6 WP MM NOT_NAMED 1929-01-20 15:00:00 NR 6.94248 137.098 main 867 867 __________P___ -1 6.94248 137.098 2 6 288
1929020N07139 1929 6 WP MM NOT_NAMED 1929-01-20 18:00:00 NR 7.05008 136.781 main 884 879 __________P___ -1 7.05008 136.781 2 7 288
1929020N07139 1929 6 WP MM NOT_NAMED 1929-01-20 21:00:00 NR 7.16287 136.428 main 889 888 __________P___ -1 7.16287 136.428 2 8 287
1929020N07139 1929 6 WP MM NOT_NAMED 1929-01-20 22:00:00 NR 7.20000 136.300 main 888 887 __________O___ -1 7.20000 136.300 2 8 284
1929020N07139 1929 6 WP MM NOT_NAMED 1929-01-21 00:00:00 NR 7.26406 136.020 main 897 896 __________P___ -1 7.26406 136.020 2 9 282
1929020N07139 1929 6 WP MM NOT_NAMED 1929-01-21 03:00:00 NR 7.36006 135.563 main 907 897 __________P___ -1 7.36006 135.563 2 10 282
1929020N07139 1929 6 WP MM NOT_NAMED 1929-01-21 06:00:00 NR 7.45875 135.074 main 903 868 __________P___ -1 7.45875 135.074 2 10 282
1929020N07139 1929 6 WP MM NOT_NAMED 1929-01-21 09:00:00 NR 7.56329 134.569 main 868 851 __________P___ -1 7.56329 134.569 2 10 282
1929020N07139 1929 6 WP MM NOT_NAMED 1929-01-21 10:00:00 NR 7.60000 134.400 main 851 827 __________O___ -1 7.60000 134.400 2 10 283
1929020N07139 1929 6 WP MM NOT_NAMED 1929-01-21 12:00:00 NR 7.68017 134.070 main 827 772 __________P___ -1 7.68017 134.070 2 10 284
1929020N07139 1929 6 WP MM NOT_NAMED 1929-01-21 15:00:00 NR 7.80686 133.568 main 772 717 __________P___ -1 7.80686 133.568 2 10 284
1929020N07139 1929 6 WP MM NOT_NAMED 1929-01-21 18:00:00 NR 7.93568 133.064 main 717 662 __________P___ -1 7.93568 133.064 2 10 284
1929020N07139 1929 6 WP MM NOT_NAMED 1929-01-21 21:00:00 NR 8.06041 132.565 main 662 640 __________P___ -1 8.06041 132.565 2 10 284
1929020N07139 1929 6 WP MM NOT_NAMED 1929-01-21 22:00:00 NR 8.10000 132.400 main 640 608 __________O___ -1 8.10000 132.400 2 10 284
1929020N07139 1929 6 WP MM NOT_NAMED 1929-01-22 00:00:00 NR 8.17480 132.083 main 608 555 __________P___ -1 8.17480 132.083 2 10 283
1929020N07139 1929 6 WP MM NOT_NAMED 1929-01-22 03:00:00 NR 8.28087 131.613 main 555 502 __________P___ -1 8.28087 131.613 2 10 282
1929020N07139 1929 6 WP MM NOT_NAMED 1929-01-22 06:00:00 NR 8.37965 131.144 main 502 460 __________P___ -1 8.37965 131.144 2 10 281
1929020N07139 1929 6 WP MM NOT_NAMED 1929-01-22 09:00:00 NR 8.47113 130.664 main 460 438 __________P___ -1 8.47113 130.664 2 10 281
1929020N07139 1929 6 WP MM NOT_NAMED 1929-01-22 10:00:00 NR 8.50000 130.500 main 438 406 __________O___ -1 8.50000 130.500 2 10 279
1929020N07139 1929 6 WP MM NOT_NAMED 1929-01-22 12:00:00 NR 8.55295 130.167 main 409 356 __________P___ -1 8.55295 130.167 2 10 279
1929020N07139 1929 6 WP MM NOT_NAMED 1929-01-22 15:00:00 NR 8.62607 129.654 main 356 297 __________P___ -1 8.62607 129.654 2 10 278
1929020N07139 1929 6 WP MM NOT_NAMED 1929-01-22 18:00:00 NR 8.69725 129.126 main 297 248 __________P___ -1 8.69725 129.126 2 11 278
1929020N07139 1929 6 WP MM NOT_NAMED 1929-01-22 21:00:00 NR 8.77277 128.584 main 248 227 __________P___ -1 8.77277 128.584 2 11 278
1929020N07139 1929 6 WP MM NOT_NAMED 1929-01-22 22:00:00 NR 8.80000 128.400 main 227 187 __________O___ -1 8.80000 128.400 4 11 279
1929020N07139 1929 6 WP MM NOT_NAMED 1929-01-23 00:00:00 NR 8.86352 128.023 main 187 123 __________P___ -1 8.86352 128.023 4 12 280
1929020N07139 1929 6 WP MM NOT_NAMED 1929-01-23 03:00:00 NR 8.96523 127.444 main 123 74 __________P___ -1 8.96523 127.444 4 12 280
1929020N07139 1929 6 WP MM NOT_NAMED 1929-01-23 06:00:00 NR 9.06906 126.862 main 74 10 __________P___ -1 9.06906 126.862 4 12 280
1929020N07139 1929 6 WP MM NOT_NAMED 1929-01-23 09:00:00 NR 9.16875 126.287 main 10 0 __________P___ -1 9.16875 126.287 4 11 280
1929020N07139 1929 6 WP MM NOT_NAMED 1929-01-23 10:00:00 NR 9.20000 126.100 main 0 0 __________O___ -1 9.20000 126.100 4 11 279
1929020N07139 1929 6 WP MM NOT_NAMED 1929-01-23 12:00:00 NR 9.25799 125.746 main 0 0 __________P___ -1 9.25799 125.746 4 10 279
1929020N07139 1929 6 WP MM NOT_NAMED 1929-01-23 15:00:00 NR 9.33895 125.229 main 32 32 __________P___ -1 9.33895 125.229 4 10 279
1929020N07139 1929 6 WP MM NOT_NAMED 1929-01-23 18:00:00 NR 9.41275 124.713 main 35 11 __________P___ -1 9.41275 124.713 4 10 278
1929020N07139 1929 6 WP MM NOT_NAMED 1929-01-23 21:00:00 NR 9.47939 124.183 main 11 11 __________P___ -1 9.47939 124.183 4 11 277
1929020N07139 1929 6 WP MM NOT_NAMED 1929-01-23 22:00:00 NR 9.50000 124.000 main 11 11 __________O___ -1 9.50000 124.000 4 11 276
1929020N07139 1929 6 WP MM NOT_NAMED 1929-01-24 00:00:00 NR 9.53360 123.625 main 15 0 __________P___ -1 9.53360 123.625 4 11 275
1929020N07139 1929 6 WP MM NOT_NAMED 1929-01-24 03:00:00 NR 9.57766 123.043 main 0 0 __________P___ -1 9.57766 123.043 4 12 274
1929020N07139 1929 6 WP MM NOT_NAMED 1929-01-24 06:00:00 NR 9.62255 122.440 main 10 10 __________P___ -1 9.62255 122.440 4 12 275
1929020N07139 1929 6 WP MM NOT_NAMED 1929-01-24 09:00:00 NR 9.67770 121.814 main 66 66 __________P___ -1 9.67770 121.814 4 12 275
1929020N07139 1929 6 WP MM NOT_NAMED 1929-01-24 10:00:00 NR 9.70000 121.600 main 85 85 __________O___ -1 9.70000 121.600 4 14 277
1929020N07139 1929 6 WP MM NOT_NAMED 1929-01-24 12:00:00 NR 9.75818 121.131 main 110 101 __________P___ -1 9.75818 121.131 4 14 278
1929020N07139 1929 6 WP MM NOT_NAMED 1929-01-24 15:00:00 NR 9.85806 120.407 main 101 46 __________P___ -1 9.85806 120.407 4 14 278
1929020N07139 1929 6 WP MM NOT_NAMED 1929-01-24 18:00:00 NR 9.96437 119.706 main 46 0 __________P___ -1 9.96437 119.706 4 13 279
1929020N07139 1929 6 WP MM NOT_NAMED 1929-01-24 21:00:00 NR 10.0678 119.082 main 0 0 __________P___ -1 10.0678 119.082 4 12 280
1929020N07139 1929 6 WP MM NOT_NAMED 1929-01-24 22:00:00 NR 10.1000 118.900 main 0 0 __________O___ -1 10.1000 118.900 1 9 280
1929020N07139 1929 6 WP MM NOT_NAMED 1929-01-25 00:00:00 NR 10.1524 118.614 main 24 24 __________P___ -1 10.1524 118.614 1 8 281
1929020N07139 1929 6 WP MM NOT_NAMED 1929-01-25 03:00:00 NR 10.2252 118.273 main 55 55 __________P___ -1 10.2252 118.273 1 6 283
1929020N07139 1929 6 WP MM NOT_NAMED 1929-01-25 06:00:00 NR 10.2966 117.989 main 86 86 __________P___ -1 10.2966 117.989 1 6 285
1929020N07139 1929 6 WP MM NOT_NAMED 1929-01-25 09:00:00 NR 10.3726 117.704 main 117 117 __________P___ -1 10.3726 117.704 1 6 285
1929020N07139 1929 6 WP MM NOT_NAMED 1929-01-25 10:00:00 NR 10.4000 117.600 main 125 125 __________O___ -1 10.4000 117.600 4 7 280
1929020N07139 1929 6 WP MM NOT_NAMED 1929-01-25 12:00:00 NR 10.4348 117.337 main 145 145 __________P___ -1 10.4348 117.337 4 8 278
1929020N07139 1929 6 WP MM NOT_NAMED 1929-01-25 15:00:00 NR 10.4926 116.916 main 175 175 __________P___ -1 10.4926 116.916 4 9 280
1929020N07139 1929 6 WP MM NOT_NAMED 1929-01-25 18:00:00 NR 10.5823 116.480 main 211 211 __________P___ -1 10.5823 116.480 4 9 286
1929020N07139 1929 6 WP MM NOT_NAMED 1929-01-25 21:00:00 NR 10.7319 116.043 main 258 258 __________P___ -1 10.7319 116.043 4 9 291
1929020N07139 1929 6 WP MM NOT_NAMED 1929-01-25 22:00:00 NR 10.8000 115.900 main 274 274 __________O___ -1 10.8000 115.900 4 9 300
1929020N07139 1929 6 WP MM NOT_NAMED 1929-01-26 00:00:00 NR 10.9682 115.630 main 313 313 __________P___ -1 10.9682 115.630 4 10 306
1929020N07139 1929 6 WP MM NOT_NAMED 1929-01-26 03:00:00 NR 11.2835 115.232 main 368 368 __________P___ -1 11.2835 115.232 4 10 311
1929020N07139 1929 6 WP MM NOT_NAMED 1929-01-26 06:00:00 NR 11.6551 114.836 main 430 430 __________P___ -1 11.6551 114.836 4 11 315
1929020N07139 1929 6 WP MM NOT_NAMED 1929-01-26 09:00:00 NR 12.0609 114.435 main 493 493 __________P___ -1 12.0609 114.435 4 11 316
1929020N07139 1929 6 WP MM NOT_NAMED 1929-01-26 10:00:00 NR 12.2000 114.300 main 508 488 __________O___ -1 12.2000 114.300 4 12 315
1929020N07139 1929 6 WP MM NOT_NAMED 1929-01-26 12:00:00 NR 12.4794 114.004 main 488 444 __________P___ -1 12.4794 114.004 4 12 315
1929020N07139 1929 6 WP MM NOT_NAMED 1929-01-26 15:00:00 NR 12.9177 113.554 main 444 392 __________P___ -1 12.9177 113.554 4 12 315
1929020N07139 1929 6 WP MM NOT_NAMED 1929-01-26 18:00:00 NR 13.3568 113.117 main 394 357 __________P___ -1 13.3568 113.117 4 12 316
1929020N07139 1929 6 WP MM NOT_NAMED 1929-01-26 21:00:00 NR 13.7715 112.720 main 360 353 __________P___ -1 13.7715 112.720 4 11 317
1929020N07139 1929 6 WP MM NOT_NAMED 1929-01-26 22:00:00 NR 13.9000 112.600 main 353 335 __________O___ -1 13.9000 112.600 4 10 318
1929020N07139 1929 6 WP MM NOT_NAMED 1929-01-27 00:00:00 NR 14.1230 112.393 main 335 307 __________P___ -1 14.1230 112.393 4 8 319
1929020N07139 1929 6 WP MM NOT_NAMED 1929-01-27 03:00:00 NR 14.4260 112.127 main 307 291 __________P___ -1 14.4260 112.127 4 8 321
1929020N07139 1929 6 WP MM NOT_NAMED 1929-01-27 06:00:00 NR 14.7109 111.894 main 294 280 __________P___ -1 14.7109 111.894 4 7 323
1929020N07139 1929 6 WP MM NOT_NAMED 1929-01-27 09:00:00 NR 14.9993 111.674 main 281 270 __________P___ -1 14.9993 111.674 4 7 324
1929020N07139 1929 6 WP MM NOT_NAMED 1929-01-27 10:00:00 NR 15.1000 111.600 main 272 256 __________O___ -1 15.1000 111.600 4 8 324
1929020N07139 1929 6 WP MM NOT_NAMED 1929-01-27 12:00:00 NR 15.3219 111.433 main 256 246 __________P___ -1 15.3219 111.433 4 8 325
1929020N07139 1929 6 WP MM NOT_NAMED 1929-01-27 15:00:00 NR 15.6673 111.183 main 251 232 __________P___ -1 15.6673 111.183 4 9 326
1929020N07139 1929 6 WP MM NOT_NAMED 1929-01-27 18:00:00 NR 16.0224 110.933 main 232 227 __________P___ -1 16.0224 110.933 4 9 326
1929020N07139 1929 6 WP MM NOT_NAMED 1929-01-27 21:00:00 NR 16.3808 110.683 main 227 212 __________P___ -1 16.3808 110.683 4 9 326
1929020N07139 1929 6 WP MM NOT_NAMED 1929-01-27 22:00:00 NR 16.5000 110.600 main 212 183 __________O___ -1 16.5000 110.600 4 8 325
1929020N07139 1929 6 WP MM NOT_NAMED 1929-01-28 00:00:00 NR 16.7280 110.433 main 183 134 __________P___ -1 16.7280 110.433 4 8 325
1929020N07139 1929 6 WP MM NOT_NAMED 1929-01-28 03:00:00 NR 17.0700 110.183 main 134 91 __________P___ -1 17.0700 110.183 4 8 325
1929020N07139 1929 6 WP MM NOT_NAMED 1929-01-28 06:00:00 NR 17.4174 109.933 main 91 44 __________P___ -1 17.4174 109.933 4 9 326
1929020N07139 1929 6 WP MM NOT_NAMED 1929-01-28 09:00:00 NR 17.7766 109.683 main 44 33 __________P___ -1 17.7766 109.683 4 9 327
1929020N07139 1929 6 WP MM NOT_NAMED 1929-01-28 10:00:00 NR 17.9000 109.600 main 33 10 __________O___ -1 17.9000 109.600 4 9 328
1929020N07139 1929 6 WP MM NOT_NAMED 1929-01-28 12:00:00 NR 18.1532 109.434 main 10 0 __________P___ -1 18.1532 109.434 4 9 329
1929020N07139 1929 6 WP MM NOT_NAMED 1929-01-28 15:00:00 NR 18.5464 109.184 main 0 0 __________P___ -1 18.5464 109.184 4 9 329
1929020N07139 1929 6 WP MM NOT_NAMED 1929-01-28 18:00:00 NR 18.9511 108.934 main 0 0 __________P___ -1 18.9511 108.934 4 9 330
1929020N07139 1929 6 WP MM NOT_NAMED 1929-01-28 21:00:00 NR 19.3624 108.684 main 0 0 __________P___ -1 19.3624 108.684 4 10 330
1929020N07139 1929 6 WP MM NOT_NAMED 1929-01-28 22:00:00 NR 19.5000 108.600 main 15 __________O___ -1 19.5000 108.600 4 10 330

Digital Typhoon Data and Search

About IBTrACS Database

This database is a web-friendly format of International Best Track Archive for Climate Stewardship (IBTrACS), a global best track data archive curated by NOAA dating back to 1842.

Updated: 2021-11-26